sensor_id;sensor_type;location;lat;lon;timestamp;temperature;humidity
20658;DHT22;10488;50.846;4.078;2023-05-14T00:01:49;12.90;99.90
20658;DHT22;10488;50.846;4.078;2023-05-14T00:04:16;12.80;99.90
20658;DHT22;10488;50.846;4.078;2023-05-14T00:06:44;12.90;99.90
20658;DHT22;10488;50.846;4.078;2023-05-14T00:09:10;12.70;99.90
20658;DHT22;10488;50.846;4.078;2023-05-14T00:11:36;12.80;99.90
20658;DHT22;10488;50.846;4.078;2023-05-14T00:14:02;12.60;99.90
20658;DHT22;10488;50.846;4.078;2023-05-14T00:16:27;12.90;99.90
20658;DHT22;10488;50.846;4.078;2023-05-14T00:18:53;13.10;99.90
20658;DHT22;10488;50.846;4.078;2023-05-14T00:21:19;13.20;99.90
20658;DHT22;10488;50.846;4.078;2023-05-14T00:23:45;13.10;99.90
20658;DHT22;10488;50.846;4.078;2023-05-14T00:26:10;12.70;99.90
20658;DHT22;10488;50.846;4.078;2023-05-14T00:28:36;12.60;99.90
20658;DHT22;10488;50.846;4.078;2023-05-14T00:31:02;12.70;99.90
20658;DHT22;10488;50.846;4.078;2023-05-14T00:33:27;12.80;99.90
20658;DHT22;10488;50.846;4.078;2023-05-14T00:35:53;12.70;99.90
20658;DHT22;10488;50.846;4.078;2023-05-14T00:38:18;12.60;99.90
20658;DHT22;10488;50.846;4.078;2023-05-14T00:40:45;12.70;99.90
20658;DHT22;10488;50.846;4.078;2023-05-14T00:43:19;12.50;99.90
20658;DHT22;10488;50.846;4.078;2023-05-14T00:45:46;12.60;99.90
20658;DHT22;10488;50.846;4.078;2023-05-14T00:48:12;12.60;99.90
20658;DHT22;10488;50.846;4.078;2023-05-14T00:50:38;12.70;99.90
20658;DHT22;10488;50.846;4.078;2023-05-14T00:53:04;12.60;99.90
20658;DHT22;10488;50.846;4.078;2023-05-14T00:55:37;12.70;99.90
20658;DHT22;10488;50.846;4.078;2023-05-14T00:58:10;12.80;99.90
20658;DHT22;10488;50.846;4.078;2023-05-14T01:00:37;12.80;99.90
20658;DHT22;10488;50.846;4.078;2023-05-14T01:03:04;12.70;99.90
20658;DHT22;10488;50.846;4.078;2023-05-14T01:05:50;12.90;99.90
20658;DHT22;10488;50.846;4.078;2023-05-14T01:11:02;12.90;99.90
20658;DHT22;10488;50.846;4.078;2023-05-14T01:13:48;12.90;99.90
20658;DHT22;10488;50.846;4.078;2023-05-14T01:16:18;12.80;99.90
20658;DHT22;10488;50.846;4.078;2023-05-14T01:18:45;12.60;99.90
20658;DHT22;10488;50.846;4.078;2023-05-14T01:21:37;12.60;99.90
20658;DHT22;10488;50.846;4.078;2023-05-14T01:24:05;12.60;99.90
20658;DHT22;10488;50.846;4.078;2023-05-14T01:26:31;12.70;99.90
20658;DHT22;10488;50.846;4.078;2023-05-14T01:29:12;12.50;99.90
20658;DHT22;10488;50.846;4.078;2023-05-14T01:31:42;12.50;99.90
20658;DHT22;10488;50.846;4.078;2023-05-14T01:34:11;12.50;99.90
20658;DHT22;10488;50.846;4.078;2023-05-14T01:36:38;12.50;99.90
20658;DHT22;10488;50.846;4.078;2023-05-14T01:39:05;12.70;99.90
20658;DHT22;10488;50.846;4.078;2023-05-14T01:41:35;12.70;99.90
20658;DHT22;10488;50.846;4.078;2023-05-14T01:44:02;12.80;99.90
20658;DHT22;10488;50.846;4.078;2023-05-14T01:46:31;12.90;99.90
20658;DHT22;10488;50.846;4.078;2023-05-14T01:48:58;12.80;99.90
20658;DHT22;10488;50.846;4.078;2023-05-14T01:51:24;12.90;99.90
20658;DHT22;10488;50.846;4.078;2023-05-14T01:53:50;12.90;99.90
20658;DHT22;10488;50.846;4.078;2023-05-14T01:56:17;13.00;99.90
20658;DHT22;10488;50.846;4.078;2023-05-14T01:58:43;13.10;99.90
20658;DHT22;10488;50.846;4.078;2023-05-14T02:01:08;13.10;99.90
20658;DHT22;10488;50.846;4.078;2023-05-14T02:03:34;13.00;99.90
20658;DHT22;10488;50.846;4.078;2023-05-14T02:05:59;12.90;99.90
20658;DHT22;10488;50.846;4.078;2023-05-14T02:08:25;13.00;99.90
20658;DHT22;10488;50.846;4.078;2023-05-14T02:10:51;12.90;99.90
20658;DHT22;10488;50.846;4.078;2023-05-14T02:13:16;13.00;99.90
20658;DHT22;10488;50.846;4.078;2023-05-14T02:15:42;13.00;99.90
20658;DHT22;10488;50.846;4.078;2023-05-14T02:18:08;12.70;99.90
20658;DHT22;10488;50.846;4.078;2023-05-14T02:20:33;12.70;99.90
20658;DHT22;10488;50.846;4.078;2023-05-14T02:22:59;13.00;99.90
20658;DHT22;10488;50.846;4.078;2023-05-14T02:25:24;12.80;99.90
20658;DHT22;10488;50.846;4.078;2023-05-14T02:27:50;12.80;99.90
20658;DHT22;10488;50.846;4.078;2023-05-14T02:30:16;12.90;99.90
20658;DHT22;10488;50.846;4.078;2023-05-14T02:32:41;12.80;99.90
20658;DHT22;10488;50.846;4.078;2023-05-14T02:35:08;13.00;99.90
20658;DHT22;10488;50.846;4.078;2023-05-14T02:37:33;12.90;99.90
20658;DHT22;10488;50.846;4.078;2023-05-14T02:39:59;13.00;99.90
20658;DHT22;10488;50.846;4.078;2023-05-14T02:42:25;13.10;99.90
20658;DHT22;10488;50.846;4.078;2023-05-14T02:44:51;13.10;99.90
20658;DHT22;10488;50.846;4.078;2023-05-14T02:47:17;13.00;99.90
20658;DHT22;10488;50.846;4.078;2023-05-14T02:49:43;12.90;99.90
20658;DHT22;10488;50.846;4.078;2023-05-14T02:52:08;12.90;99.90
20658;DHT22;10488;50.846;4.078;2023-05-14T02:54:34;13.10;99.90
20658;DHT22;10488;50.846;4.078;2023-05-14T02:57:00;13.00;99.90
20658;DHT22;10488;50.846;4.078;2023-05-14T02:59:26;12.80;99.90
20658;DHT22;10488;50.846;4.078;2023-05-14T03:01:51;12.90;99.90
20658;DHT22;10488;50.846;4.078;2023-05-14T03:04:17;12.90;99.90
20658;DHT22;10488;50.846;4.078;2023-05-14T03:06:43;12.70;99.90
20658;DHT22;10488;50.846;4.078;2023-05-14T03:09:09;12.50;99.90
20658;DHT22;10488;50.846;4.078;2023-05-14T03:11:34;12.70;99.90
20658;DHT22;10488;50.846;4.078;2023-05-14T03:14:00;12.60;99.90
20658;DHT22;10488;50.846;4.078;2023-05-14T03:16:26;12.80;99.90
20658;DHT22;10488;50.846;4.078;2023-05-14T03:18:51;12.70;99.90
20658;DHT22;10488;50.846;4.078;2023-05-14T03:21:17;12.70;99.90
20658;DHT22;10488;50.846;4.078;2023-05-14T03:23:43;12.80;99.90
20658;DHT22;10488;50.846;4.078;2023-05-14T03:26:09;12.90;99.90
20658;DHT22;10488;50.846;4.078;2023-05-14T03:28:35;12.60;99.90
20658;DHT22;10488;50.846;4.078;2023-05-14T03:31:00;12.70;99.90
20658;DHT22;10488;50.846;4.078;2023-05-14T03:33:26;12.70;99.90
20658;DHT22;10488;50.846;4.078;2023-05-14T03:35:52;12.80;99.90
20658;DHT22;10488;50.846;4.078;2023-05-14T03:38:17;13.10;99.90
20658;DHT22;10488;50.846;4.078;2023-05-14T03:40:43;13.00;99.90
20658;DHT22;10488;50.846;4.078;2023-05-14T03:43:09;13.10;99.90
20658;DHT22;10488;50.846;4.078;2023-05-14T03:45:35;13.10;99.90
20658;DHT22;10488;50.846;4.078;2023-05-14T03:48:01;12.80;99.90
20658;DHT22;10488;50.846;4.078;2023-05-14T03:50:27;12.90;99.90
20658;DHT22;10488;50.846;4.078;2023-05-14T03:52:53;13.00;99.90
20658;DHT22;10488;50.846;4.078;2023-05-14T03:55:20;13.00;99.90
20658;DHT22;10488;50.846;4.078;2023-05-14T03:57:46;13.00;99.90
20658;DHT22;10488;50.846;4.078;2023-05-14T04:00:12;13.10;99.90
20658;DHT22;10488;50.846;4.078;2023-05-14T04:02:38;13.00;99.90
20658;DHT22;10488;50.846;4.078;2023-05-14T04:05:04;13.10;99.90
20658;DHT22;10488;50.846;4.078;2023-05-14T04:07:30;13.10;99.90
20658;DHT22;10488;50.846;4.078;2023-05-14T04:09:55;13.20;99.90
20658;DHT22;10488;50.846;4.078;2023-05-14T04:12:21;12.90;99.90
20658;DHT22;10488;50.846;4.078;2023-05-14T04:14:47;12.90;99.90
20658;DHT22;10488;50.846;4.078;2023-05-14T04:17:12;12.80;99.90
20658;DHT22;10488;50.846;4.078;2023-05-14T04:19:38;12.90;99.90
20658;DHT22;10488;50.846;4.078;2023-05-14T04:22:05;12.90;99.90
20658;DHT22;10488;50.846;4.078;2023-05-14T04:24:30;12.90;99.90
20658;DHT22;10488;50.846;4.078;2023-05-14T04:26:56;13.20;99.90
20658;DHT22;10488;50.846;4.078;2023-05-14T04:29:22;13.10;99.90
20658;DHT22;10488;50.846;4.078;2023-05-14T04:31:48;13.30;99.90
20658;DHT22;10488;50.846;4.078;2023-05-14T04:34:14;13.40;99.90
20658;DHT22;10488;50.846;4.078;2023-05-14T04:36:40;13.30;99.90
20658;DHT22;10488;50.846;4.078;2023-05-14T04:39:06;13.30;99.90
20658;DHT22;10488;50.846;4.078;2023-05-14T04:41:34;13.10;99.90
20658;DHT22;10488;50.846;4.078;2023-05-14T04:44:00;13.30;99.90
20658;DHT22;10488;50.846;4.078;2023-05-14T04:46:26;13.10;99.90
20658;DHT22;10488;50.846;4.078;2023-05-14T04:48:52;13.00;99.90
20658;DHT22;10488;50.846;4.078;2023-05-14T04:51:18;13.00;99.90
20658;DHT22;10488;50.846;4.078;2023-05-14T04:53:43;12.90;99.90
20658;DHT22;10488;50.846;4.078;2023-05-14T04:56:09;13.00;99.90
20658;DHT22;10488;50.846;4.078;2023-05-14T04:58:35;12.90;99.90
20658;DHT22;10488;50.846;4.078;2023-05-14T05:01:03;13.10;99.90
20658;DHT22;10488;50.846;4.078;2023-05-14T05:03:29;13.20;99.90
20658;DHT22;10488;50.846;4.078;2023-05-14T05:05:55;13.30;99.90
20658;DHT22;10488;50.846;4.078;2023-05-14T05:08:21;13.10;99.90
20658;DHT22;10488;50.846;4.078;2023-05-14T05:10:47;13.20;99.90
20658;DHT22;10488;50.846;4.078;2023-05-14T05:13:12;13.20;99.90
20658;DHT22;10488;50.846;4.078;2023-05-14T05:15:39;13.20;99.90
20658;DHT22;10488;50.846;4.078;2023-05-14T05:18:05;13.20;99.90
20658;DHT22;10488;50.846;4.078;2023-05-14T05:20:31;13.30;99.90
20658;DHT22;10488;50.846;4.078;2023-05-14T05:22:57;13.20;99.90
20658;DHT22;10488;50.846;4.078;2023-05-14T05:25:22;13.10;99.90
20658;DHT22;10488;50.846;4.078;2023-05-14T05:27:48;13.30;99.90
20658;DHT22;10488;50.846;4.078;2023-05-14T05:30:13;13.10;99.90
20658;DHT22;10488;50.846;4.078;2023-05-14T05:32:39;13.10;99.90
20658;DHT22;10488;50.846;4.078;2023-05-14T05:35:05;13.00;99.90
20658;DHT22;10488;50.846;4.078;2023-05-14T05:37:31;12.90;99.90
20658;DHT22;10488;50.846;4.078;2023-05-14T05:39:57;12.90;99.90
20658;DHT22;10488;50.846;4.078;2023-05-14T05:42:23;13.10;99.90
20658;DHT22;10488;50.846;4.078;2023-05-14T05:44:49;12.90;99.90
20658;DHT22;10488;50.846;4.078;2023-05-14T05:47:14;12.90;99.90
20658;DHT22;10488;50.846;4.078;2023-05-14T05:49:41;13.20;99.90
20658;DHT22;10488;50.846;4.078;2023-05-14T05:52:09;13.40;99.90
20658;DHT22;10488;50.846;4.078;2023-05-14T05:54:35;13.30;99.90
20658;DHT22;10488;50.846;4.078;2023-05-14T05:57:01;13.40;99.90
20658;DHT22;10488;50.846;4.078;2023-05-14T05:59:26;13.40;99.90
20658;DHT22;10488;50.846;4.078;2023-05-14T06:01:52;13.50;99.90
20658;DHT22;10488;50.846;4.078;2023-05-14T06:04:17;13.40;99.90
20658;DHT22;10488;50.846;4.078;2023-05-14T06:06:43;13.50;99.90
20658;DHT22;10488;50.846;4.078;2023-05-14T06:09:09;13.40;99.90
20658;DHT22;10488;50.846;4.078;2023-05-14T06:11:35;13.60;99.90
20658;DHT22;10488;50.846;4.078;2023-05-14T06:14:00;13.70;99.90
20658;DHT22;10488;50.846;4.078;2023-05-14T06:16:26;13.60;99.90
20658;DHT22;10488;50.846;4.078;2023-05-14T06:18:52;13.70;99.90
20658;DHT22;10488;50.846;4.078;2023-05-14T06:21:19;13.70;99.90
20658;DHT22;10488;50.846;4.078;2023-05-14T06:23:44;13.60;99.90
20658;DHT22;10488;50.846;4.078;2023-05-14T06:26:10;13.90;99.90
20658;DHT22;10488;50.846;4.078;2023-05-14T06:28:36;13.80;99.90
20658;DHT22;10488;50.846;4.078;2023-05-14T06:31:02;13.80;99.90
20658;DHT22;10488;50.846;4.078;2023-05-14T06:33:28;13.80;99.90
20658;DHT22;10488;50.846;4.078;2023-05-14T06:35:58;14.00;99.90
20658;DHT22;10488;50.846;4.078;2023-05-14T06:38:24;14.10;99.90
20658;DHT22;10488;50.846;4.078;2023-05-14T06:40:50;13.70;99.90
20658;DHT22;10488;50.846;4.078;2023-05-14T06:43:17;13.60;99.90
20658;DHT22;10488;50.846;4.078;2023-05-14T06:45:43;13.60;99.90
20658;DHT22;10488;50.846;4.078;2023-05-14T06:48:08;13.90;99.90
20658;DHT22;10488;50.846;4.078;2023-05-14T06:50:34;13.60;99.90
20658;DHT22;10488;50.846;4.078;2023-05-14T06:53:00;13.70;99.90
20658;DHT22;10488;50.846;4.078;2023-05-14T06:55:26;14.00;99.90
20658;DHT22;10488;50.846;4.078;2023-05-14T06:57:52;14.10;99.90
20658;DHT22;10488;50.846;4.078;2023-05-14T07:00:18;13.60;99.90
20658;DHT22;10488;50.846;4.078;2023-05-14T07:02:44;13.60;99.90
20658;DHT22;10488;50.846;4.078;2023-05-14T07:05:10;13.50;99.90
20658;DHT22;10488;50.846;4.078;2023-05-14T07:07:35;13.30;99.90
20658;DHT22;10488;50.846;4.078;2023-05-14T07:10:01;13.20;99.90
20658;DHT22;10488;50.846;4.078;2023-05-14T07:12:27;13.30;99.90
20658;DHT22;10488;50.846;4.078;2023-05-14T07:14:52;13.20;99.90
20658;DHT22;10488;50.846;4.078;2023-05-14T07:17:18;13.40;99.90
20658;DHT22;10488;50.846;4.078;2023-05-14T07:19:44;13.70;99.90
20658;DHT22;10488;50.846;4.078;2023-05-14T07:22:10;14.00;99.90
20658;DHT22;10488;50.846;4.078;2023-05-14T07:24:35;13.60;99.90
20658;DHT22;10488;50.846;4.078;2023-05-14T07:27:01;13.40;99.90
20658;DHT22;10488;50.846;4.078;2023-05-14T07:29:27;13.30;99.90
20658;DHT22;10488;50.846;4.078;2023-05-14T07:31:54;13.70;99.90
20658;DHT22;10488;50.846;4.078;2023-05-14T07:34:20;13.80;99.90
20658;DHT22;10488;50.846;4.078;2023-05-14T07:36:45;14.10;99.90
20658;DHT22;10488;50.846;4.078;2023-05-14T07:39:11;13.80;99.90
20658;DHT22;10488;50.846;4.078;2023-05-14T07:41:37;13.70;99.90
20658;DHT22;10488;50.846;4.078;2023-05-14T07:44:03;13.60;99.90
20658;DHT22;10488;50.846;4.078;2023-05-14T07:46:29;13.40;99.90
20658;DHT22;10488;50.846;4.078;2023-05-14T07:48:55;13.60;99.90
20658;DHT22;10488;50.846;4.078;2023-05-14T07:51:20;13.90;99.90
20658;DHT22;10488;50.846;4.078;2023-05-14T07:53:46;14.00;99.90
20658;DHT22;10488;50.846;4.078;2023-05-14T07:56:12;13.80;99.90
20658;DHT22;10488;50.846;4.078;2023-05-14T07:58:37;13.60;99.90
20658;DHT22;10488;50.846;4.078;2023-05-14T08:01:03;13.90;99.90
20658;DHT22;10488;50.846;4.078;2023-05-14T08:03:31;14.20;99.90
20658;DHT22;10488;50.846;4.078;2023-05-14T08:05:57;14.30;99.90
20658;DHT22;10488;50.846;4.078;2023-05-14T08:08:23;14.30;99.90
20658;DHT22;10488;50.846;4.078;2023-05-14T08:10:49;14.20;99.90
20658;DHT22;10488;50.846;4.078;2023-05-14T08:13:15;14.40;99.90
20658;DHT22;10488;50.846;4.078;2023-05-14T08:15:41;14.50;99.90
20658;DHT22;10488;50.846;4.078;2023-05-14T08:18:06;14.60;99.90
20658;DHT22;10488;50.846;4.078;2023-05-14T08:20:32;15.00;99.90
20658;DHT22;10488;50.846;4.078;2023-05-14T08:22:57;15.40;99.90
20658;DHT22;10488;50.846;4.078;2023-05-14T08:25:23;15.60;99.90
20658;DHT22;10488;50.846;4.078;2023-05-14T08:27:49;15.70;99.90
20658;DHT22;10488;50.846;4.078;2023-05-14T08:30:15;15.80;99.90
20658;DHT22;10488;50.846;4.078;2023-05-14T08:32:41;15.70;99.90
20658;DHT22;10488;50.846;4.078;2023-05-14T08:35:07;15.50;99.90
20658;DHT22;10488;50.846;4.078;2023-05-14T08:37:33;15.10;99.90
20658;DHT22;10488;50.846;4.078;2023-05-14T08:39:58;15.40;99.90
20658;DHT22;10488;50.846;4.078;2023-05-14T08:42:25;15.80;99.90
20658;DHT22;10488;50.846;4.078;2023-05-14T08:44:57;16.00;99.90
20658;DHT22;10488;50.846;4.078;2023-05-14T08:47:24;16.20;99.90
20658;DHT22;10488;50.846;4.078;2023-05-14T08:50:04;16.30;99.90
20658;DHT22;10488;50.846;4.078;2023-05-14T08:52:31;16.10;99.90
20658;DHT22;10488;50.846;4.078;2023-05-14T08:55:03;16.10;99.90
20658;DHT22;10488;50.846;4.078;2023-05-14T08:57:31;15.80;99.90
20658;DHT22;10488;50.846;4.078;2023-05-14T08:59:57;15.60;99.90
20658;DHT22;10488;50.846;4.078;2023-05-14T09:02:30;16.30;99.90
20658;DHT22;10488;50.846;4.078;2023-05-14T09:05:00;16.70;99.90
20658;DHT22;10488;50.846;4.078;2023-05-14T09:07:27;17.00;99.90
20658;DHT22;10488;50.846;4.078;2023-05-14T09:09:53;16.60;99.90
20658;DHT22;10488;50.846;4.078;2023-05-14T09:12:19;16.70;99.90
20658;DHT22;10488;50.846;4.078;2023-05-14T09:14:47;16.40;99.90
20658;DHT22;10488;50.846;4.078;2023-05-14T09:17:13;15.80;99.90
20658;DHT22;10488;50.846;4.078;2023-05-14T09:19:39;16.60;99.90
20658;DHT22;10488;50.846;4.078;2023-05-14T09:22:08;16.20;99.90
20658;DHT22;10488;50.846;4.078;2023-05-14T09:24:35;16.50;99.90
20658;DHT22;10488;50.846;4.078;2023-05-14T09:27:03;16.70;99.90
20658;DHT22;10488;50.846;4.078;2023-05-14T09:29:30;17.20;99.90
20658;DHT22;10488;50.846;4.078;2023-05-14T09:31:57;17.40;99.90
20658;DHT22;10488;50.846;4.078;2023-05-14T09:34:24;18.20;99.90
20658;DHT22;10488;50.846;4.078;2023-05-14T09:36:58;18.40;99.90
20658;DHT22;10488;50.846;4.078;2023-05-14T09:39:24;18.60;99.90
20658;DHT22;10488;50.846;4.078;2023-05-14T09:41:51;17.60;99.90
20658;DHT22;10488;50.846;4.078;2023-05-14T09:44:17;17.80;99.90
20658;DHT22;10488;50.846;4.078;2023-05-14T09:46:44;18.10;99.90
20658;DHT22;10488;50.846;4.078;2023-05-14T09:49:10;18.80;99.90
20658;DHT22;10488;50.846;4.078;2023-05-14T09:51:36;19.30;99.90
20658;DHT22;10488;50.846;4.078;2023-05-14T09:54:03;18.40;99.90
20658;DHT22;10488;50.846;4.078;2023-05-14T09:56:29;18.80;99.90
20658;DHT22;10488;50.846;4.078;2023-05-14T09:58:55;18.50;99.90
20658;DHT22;10488;50.846;4.078;2023-05-14T10:01:21;17.90;99.90
20658;DHT22;10488;50.846;4.078;2023-05-14T10:03:48;18.00;99.90
20658;DHT22;10488;50.846;4.078;2023-05-14T10:06:15;17.60;99.90
20658;DHT22;10488;50.846;4.078;2023-05-14T10:08:44;18.40;99.90
20658;DHT22;10488;50.846;4.078;2023-05-14T10:11:23;18.60;99.90
20658;DHT22;10488;50.846;4.078;2023-05-14T10:14:08;17.30;99.90
20658;DHT22;10488;50.846;4.078;2023-05-14T10:16:40;17.00;99.90
20658;DHT22;10488;50.846;4.078;2023-05-14T10:19:09;17.60;99.90
20658;DHT22;10488;50.846;4.078;2023-05-14T10:21:36;17.60;99.90
20658;DHT22;10488;50.846;4.078;2023-05-14T10:24:06;17.80;99.90
20658;DHT22;10488;50.846;4.078;2023-05-14T10:26:36;18.10;99.90
20658;DHT22;10488;50.846;4.078;2023-05-14T10:29:12;18.20;99.90
20658;DHT22;10488;50.846;4.078;2023-05-14T10:31:52;18.60;99.90
20658;DHT22;10488;50.846;4.078;2023-05-14T10:37:07;19.00;99.90
20658;DHT22;10488;50.846;4.078;2023-05-14T10:39:45;19.60;99.90
20658;DHT22;10488;50.846;4.078;2023-05-14T10:42:21;19.80;99.90
20658;DHT22;10488;50.846;4.078;2023-05-14T10:44:58;19.10;99.90
20658;DHT22;10488;50.846;4.078;2023-05-14T10:47:27;18.10;99.90
20658;DHT22;10488;50.846;4.078;2023-05-14T10:49:55;17.70;99.90
20658;DHT22;10488;50.846;4.078;2023-05-14T10:52:21;18.00;99.90
20658;DHT22;10488;50.846;4.078;2023-05-14T10:54:52;18.60;99.90
20658;DHT22;10488;50.846;4.078;2023-05-14T10:57:20;18.40;99.90
20658;DHT22;10488;50.846;4.078;2023-05-14T10:59:52;17.80;99.90
20658;DHT22;10488;50.846;4.078;2023-05-14T11:07:26;17.90;99.90
20658;DHT22;10488;50.846;4.078;2023-05-14T11:09:55;17.90;99.90
20658;DHT22;10488;50.846;4.078;2023-05-14T11:12:21;18.10;99.90
20658;DHT22;10488;50.846;4.078;2023-05-14T11:14:47;18.10;99.90
20658;DHT22;10488;50.846;4.078;2023-05-14T11:17:13;18.50;99.90
20658;DHT22;10488;50.846;4.078;2023-05-14T11:19:42;18.90;99.90
20658;DHT22;10488;50.846;4.078;2023-05-14T11:22:08;19.40;99.90
20658;DHT22;10488;50.846;4.078;2023-05-14T11:24:33;19.80;99.90
20658;DHT22;10488;50.846;4.078;2023-05-14T11:26:59;20.10;99.90
20658;DHT22;10488;50.846;4.078;2023-05-14T11:29:25;20.30;99.90
20658;DHT22;10488;50.846;4.078;2023-05-14T11:31:50;19.50;99.90
20658;DHT22;10488;50.846;4.078;2023-05-14T11:34:16;19.80;99.90
20658;DHT22;10488;50.846;4.078;2023-05-14T11:36:42;20.20;99.90
20658;DHT22;10488;50.846;4.078;2023-05-14T11:39:08;19.70;99.90
20658;DHT22;10488;50.846;4.078;2023-05-14T11:41:33;19.80;99.90
20658;DHT22;10488;50.846;4.078;2023-05-14T11:43:59;19.60;99.90
20658;DHT22;10488;50.846;4.078;2023-05-14T11:46:25;19.40;99.90
20658;DHT22;10488;50.846;4.078;2023-05-14T11:48:50;19.70;99.90
20658;DHT22;10488;50.846;4.078;2023-05-14T11:51:16;19.40;99.90
20658;DHT22;10488;50.846;4.078;2023-05-14T11:53:43;19.70;99.90
20658;DHT22;10488;50.846;4.078;2023-05-14T11:56:09;19.70;99.90
20658;DHT22;10488;50.846;4.078;2023-05-14T11:58:35;19.30;99.90
20658;DHT22;10488;50.846;4.078;2023-05-14T12:01:01;19.20;99.90
20658;DHT22;10488;50.846;4.078;2023-05-14T12:03:27;19.00;99.90
20658;DHT22;10488;50.846;4.078;2023-05-14T12:08:28;19.80;99.90
20658;DHT22;10488;50.846;4.078;2023-05-14T12:10:55;20.40;99.90
20658;DHT22;10488;50.846;4.078;2023-05-14T12:13:21;19.90;99.90
20658;DHT22;10488;50.846;4.078;2023-05-14T12:15:55;20.40;99.90
20658;DHT22;10488;50.846;4.078;2023-05-14T12:18:23;19.80;99.90
20658;DHT22;10488;50.846;4.078;2023-05-14T12:20:49;19.80;99.90
20658;DHT22;10488;50.846;4.078;2023-05-14T12:23:23;20.40;99.90
20658;DHT22;10488;50.846;4.078;2023-05-14T12:25:52;20.30;99.90
20658;DHT22;10488;50.846;4.078;2023-05-14T12:28:18;20.70;99.90
20658;DHT22;10488;50.846;4.078;2023-05-14T12:30:54;20.80;99.90
20658;DHT22;10488;50.846;4.078;2023-05-14T12:33:20;21.10;99.90
20658;DHT22;10488;50.846;4.078;2023-05-14T12:35:51;20.60;99.90
20658;DHT22;10488;50.846;4.078;2023-05-14T12:38:18;20.60;99.90
20658;DHT22;10488;50.846;4.078;2023-05-14T12:40:44;20.70;99.90
20658;DHT22;10488;50.846;4.078;2023-05-14T12:43:10;20.30;99.90
20658;DHT22;10488;50.846;4.078;2023-05-14T12:45:36;20.40;99.90
20658;DHT22;10488;50.846;4.078;2023-05-14T12:48:01;21.00;99.90
20658;DHT22;10488;50.846;4.078;2023-05-14T12:50:27;21.30;99.90
20658;DHT22;10488;50.846;4.078;2023-05-14T12:52:53;20.90;99.90
20658;DHT22;10488;50.846;4.078;2023-05-14T12:55:19;20.90;99.90
20658;DHT22;10488;50.846;4.078;2023-05-14T12:57:45;20.90;99.90
20658;DHT22;10488;50.846;4.078;2023-05-14T13:00:11;20.70;99.90
20658;DHT22;10488;50.846;4.078;2023-05-14T13:02:37;20.90;99.90
20658;DHT22;10488;50.846;4.078;2023-05-14T13:05:02;21.20;99.90
20658;DHT22;10488;50.846;4.078;2023-05-14T13:07:29;20.80;99.90
20658;DHT22;10488;50.846;4.078;2023-05-14T13:09:55;20.70;99.90
20658;DHT22;10488;50.846;4.078;2023-05-14T13:12:22;21.00;99.90
20658;DHT22;10488;50.846;4.078;2023-05-14T13:14:48;20.70;99.90
20658;DHT22;10488;50.846;4.078;2023-05-14T13:17:14;20.70;99.90
20658;DHT22;10488;50.846;4.078;2023-05-14T13:19:40;20.90;99.90
20658;DHT22;10488;50.846;4.078;2023-05-14T13:22:05;21.10;99.90
20658;DHT22;10488;50.846;4.078;2023-05-14T13:24:31;21.60;99.90
20658;DHT22;10488;50.846;4.078;2023-05-14T13:26:57;21.40;99.90
20658;DHT22;10488;50.846;4.078;2023-05-14T13:29:22;21.40;99.90
20658;DHT22;10488;50.846;4.078;2023-05-14T13:31:48;21.40;99.90
20658;DHT22;10488;50.846;4.078;2023-05-14T13:34:14;20.90;99.90
20658;DHT22;10488;50.846;4.078;2023-05-14T13:36:40;20.70;99.90
20658;DHT22;10488;50.846;4.078;2023-05-14T13:39:09;20.70;99.90
20658;DHT22;10488;50.846;4.078;2023-05-14T13:41:36;21.20;99.90
20658;DHT22;10488;50.846;4.078;2023-05-14T13:44:02;21.40;99.90
20658;DHT22;10488;50.846;4.078;2023-05-14T13:46:28;21.50;99.90
20658;DHT22;10488;50.846;4.078;2023-05-14T13:48:54;21.70;99.90
20658;DHT22;10488;50.846;4.078;2023-05-14T13:51:21;21.40;99.90
20658;DHT22;10488;50.846;4.078;2023-05-14T13:53:47;21.30;99.90
20658;DHT22;10488;50.846;4.078;2023-05-14T13:56:12;21.40;99.90
20658;DHT22;10488;50.846;4.078;2023-05-14T13:58:38;21.70;99.90
20658;DHT22;10488;50.846;4.078;2023-05-14T14:01:04;21.70;99.90
20658;DHT22;10488;50.846;4.078;2023-05-14T14:03:30;20.80;99.90
20658;DHT22;10488;50.846;4.078;2023-05-14T14:05:55;20.70;99.90
20658;DHT22;10488;50.846;4.078;2023-05-14T14:08:21;20.70;99.90
20658;DHT22;10488;50.846;4.078;2023-05-14T14:10:47;20.60;99.90
20658;DHT22;10488;50.846;4.078;2023-05-14T14:13:12;20.70;99.90
20658;DHT22;10488;50.846;4.078;2023-05-14T14:15:38;20.60;99.90
20658;DHT22;10488;50.846;4.078;2023-05-14T14:18:04;21.20;99.90
20658;DHT22;10488;50.846;4.078;2023-05-14T14:20:30;21.20;99.90
20658;DHT22;10488;50.846;4.078;2023-05-14T14:22:58;21.30;99.90
20658;DHT22;10488;50.846;4.078;2023-05-14T14:25:23;21.60;99.90
20658;DHT22;10488;50.846;4.078;2023-05-14T14:27:49;21.40;99.90
20658;DHT22;10488;50.846;4.078;2023-05-14T14:30:15;21.50;99.90
20658;DHT22;10488;50.846;4.078;2023-05-14T14:32:45;21.80;99.90
20658;DHT22;10488;50.846;4.078;2023-05-14T14:35:13;21.70;99.90
20658;DHT22;10488;50.846;4.078;2023-05-14T14:37:39;20.90;99.90
20658;DHT22;10488;50.846;4.078;2023-05-14T14:40:07;20.40;99.90
20658;DHT22;10488;50.846;4.078;2023-05-14T14:42:34;20.50;99.90
20658;DHT22;10488;50.846;4.078;2023-05-14T14:45:00;20.60;99.90
20658;DHT22;10488;50.846;4.078;2023-05-14T14:47:25;20.90;99.90
20658;DHT22;10488;50.846;4.078;2023-05-14T14:49:51;21.30;99.90
20658;DHT22;10488;50.846;4.078;2023-05-14T14:52:17;21.30;99.90
20658;DHT22;10488;50.846;4.078;2023-05-14T14:54:43;20.80;99.90
20658;DHT22;10488;50.846;4.078;2023-05-14T14:57:08;20.80;99.90
20658;DHT22;10488;50.846;4.078;2023-05-14T14:59:34;20.80;99.90
20658;DHT22;10488;50.846;4.078;2023-05-14T15:02:00;20.80;99.90
20658;DHT22;10488;50.846;4.078;2023-05-14T15:04:26;20.90;99.90
20658;DHT22;10488;50.846;4.078;2023-05-14T15:06:52;21.00;99.90
20658;DHT22;10488;50.846;4.078;2023-05-14T15:09:18;20.80;99.90
20658;DHT22;10488;50.846;4.078;2023-05-14T15:11:44;20.60;99.90
20658;DHT22;10488;50.846;4.078;2023-05-14T15:14:09;20.40;99.90
20658;DHT22;10488;50.846;4.078;2023-05-14T15:16:35;20.40;99.90
20658;DHT22;10488;50.846;4.078;2023-05-14T15:19:01;20.60;99.90
20658;DHT22;10488;50.846;4.078;2023-05-14T15:21:26;20.70;99.90
20658;DHT22;10488;50.846;4.078;2023-05-14T15:23:52;20.30;99.90
20658;DHT22;10488;50.846;4.078;2023-05-14T15:26:18;20.50;99.90
20658;DHT22;10488;50.846;4.078;2023-05-14T15:28:43;20.10;99.90
20658;DHT22;10488;50.846;4.078;2023-05-14T15:31:09;19.90;99.90
20658;DHT22;10488;50.846;4.078;2023-05-14T15:33:35;19.60;99.90
20658;DHT22;10488;50.846;4.078;2023-05-14T15:36:01;19.70;99.90
20658;DHT22;10488;50.846;4.078;2023-05-14T15:38:26;19.90;99.90
20658;DHT22;10488;50.846;4.078;2023-05-14T15:40:52;19.90;99.90